createdAt,value
2023-01-05T04:37:04.192Z,10.60
2023-01-05T04:47:22.638Z,10.50
2023-01-05T04:57:40.202Z,10.50
2023-01-05T05:07:59.022Z,10.50
2023-01-05T05:18:17.092Z,10.60
2023-01-05T05:28:32.622Z,10.60
2023-01-05T05:38:47.764Z,10.60
2023-01-05T05:49:04.609Z,10.50
2023-01-05T05:59:19.909Z,10.30
2023-01-05T06:09:35.334Z,10.40
2023-01-05T06:19:50.614Z,10.40
2023-01-05T06:30:06.641Z,10.30
2023-01-05T06:40:22.252Z,10.20
2023-01-05T06:50:37.569Z,10.20
2023-01-05T07:00:54.436Z,10.20
2023-01-05T07:11:09.791Z,10.30
2023-01-05T07:21:25.038Z,10.10
2023-01-05T07:31:40.094Z,10.20
2023-01-05T07:41:55.368Z,10.10
2023-01-05T07:52:13.752Z,10.20
2023-01-05T08:02:35.453Z,10.10
2023-01-05T08:13:09.542Z,10.10
2023-01-05T08:23:27.382Z,10.00
2023-01-05T08:33:42.795Z,10.00
2023-01-05T08:44:00.971Z,10.10
2023-01-05T08:54:16.349Z,10.20
2023-01-05T09:04:31.675Z,10.40
2023-01-05T09:14:47.167Z,10.90
2023-01-05T09:25:04.295Z,11.40
2023-01-05T09:35:19.498Z,11.20
2023-01-05T09:45:34.979Z,11.70
2023-01-05T09:55:51.081Z,11.70
2023-01-05T10:06:13.260Z,11.50
2023-01-05T10:16:37.856Z,11.70
2023-01-05T10:27:25.908Z,11.80
2023-01-05T10:38:04.040Z,11.90
2023-01-05T10:48:33.328Z,12.00
2023-01-05T10:58:49.234Z,12.00
2023-01-05T11:09:27.824Z,12.20
2023-01-05T11:19:54.037Z,12.50
2023-01-05T11:30:16.667Z,12.90
2023-01-05T11:40:40.670Z,13.00
2023-01-05T11:51:01.222Z,12.80
2023-01-05T12:02:01.201Z,12.70
2023-01-05T12:12:35.862Z,12.60
2023-01-05T12:23:11.061Z,12.70
2023-01-05T12:34:03.337Z,12.70
2023-01-05T12:45:02.649Z,12.60
2023-01-05T12:55:36.861Z,12.60
2023-01-05T13:06:03.991Z,12.60
2023-01-05T13:16:26.352Z,12.60
2023-01-05T13:26:45.616Z,12.20
2023-01-05T13:48:44.575Z,11.70
2023-01-05T13:59:34.790Z,11.20
2023-01-05T14:10:03.312Z,10.80
2023-01-05T14:20:41.285Z,10.70
2023-01-05T14:31:14.126Z,10.50
2023-01-05T14:41:34.151Z,10.40
2023-01-05T14:51:56.446Z,10.80
2023-01-05T15:02:26.452Z,10.90
2023-01-05T15:12:57.434Z,10.90
2023-01-05T15:23:35.063Z,10.90
2023-01-05T15:34:14.036Z,11.00
2023-01-05T15:44:36.457Z,11.00
2023-01-05T15:55:16.857Z,11.00
2023-01-05T16:05:35.970Z,10.90
2023-01-05T16:15:57.499Z,10.80
2023-01-05T16:26:20.273Z,10.50
2023-01-05T16:36:36.146Z,10.40
2023-01-05T16:47:10.829Z,10.50
2023-01-05T16:57:43.357Z,10.50
2023-01-05T17:08:03.795Z,10.40
2023-01-05T17:18:28.692Z,10.40
2023-01-05T17:28:44.197Z,10.40
2023-01-05T17:38:59.796Z,10.40
2023-01-05T17:49:18.797Z,10.50
2023-01-05T17:59:33.903Z,10.60
2023-01-05T18:09:49.386Z,10.60
2023-01-05T18:20:06.498Z,10.60
2023-01-05T18:30:21.817Z,10.70
2023-01-05T18:40:37.348Z,10.80
2023-01-05T18:50:52.794Z,10.90
2023-01-05T19:01:13.278Z,10.90
2023-01-05T19:11:28.506Z,10.80
2023-01-05T19:21:45.115Z,10.60
2023-01-05T19:32:00.167Z,10.50
2023-01-05T19:42:15.590Z,10.30
2023-01-05T19:52:30.920Z,9.70
2023-01-05T20:02:46.321Z,9.50
2023-01-05T20:13:01.510Z,9.70
2023-01-05T20:23:16.903Z,9.50
2023-01-05T20:33:32.343Z,9.70
2023-01-05T20:43:48.785Z,10.00
2023-01-05T20:54:05.964Z,10.10
2023-01-05T21:04:22.388Z,10.20
2023-01-05T21:14:38.047Z,10.40
2023-01-05T21:24:53.437Z,10.60
2023-01-05T21:35:09.370Z,10.60
2023-01-05T21:45:25.637Z,10.70
2023-01-05T21:55:59.593Z,10.70
2023-01-05T22:06:14.831Z,10.70
2023-01-05T22:16:30.208Z,10.60
2023-01-05T22:26:45.514Z,10.60
